createdAt,value
2019-05-05T00:01:08.262Z,17.60
2019-05-05T00:03:47.156Z,14.90
2019-05-05T00:06:18.455Z,17.27
2019-05-05T00:08:49.503Z,21.00
2019-05-05T00:11:32.484Z,18.87
2019-05-05T00:14:10.385Z,18.80
2019-05-05T00:16:48.424Z,18.90
2019-05-05T00:19:30.692Z,17.70
2019-05-05T00:21:55.030Z,23.80
2019-05-05T00:24:25.552Z,22.50
2019-05-05T00:26:58.600Z,17.60
2019-05-05T00:29:29.222Z,15.93
2019-05-05T00:31:59.896Z,23.63
2019-05-05T00:34:30.617Z,22.03
2019-05-05T00:37:04.458Z,21.63
2019-05-05T00:39:34.646Z,22.37
2019-05-05T00:42:05.693Z,22.83
2019-05-05T00:44:36.446Z,21.93
2019-05-05T00:47:08.618Z,24.30
2019-05-05T00:49:46.473Z,25.07
2019-05-05T00:52:14.374Z,23.57
2019-05-05T00:54:45.213Z,29.17
2019-05-05T00:57:16.426Z,40.73
2019-05-05T00:59:47.113Z,28.20
2019-05-05T01:02:26.771Z,27.03
2019-05-05T01:04:59.074Z,27.83
2019-05-05T01:07:31.474Z,29.17
2019-05-05T01:10:02.443Z,32.07
2019-05-05T01:12:34.872Z,35.20
2019-05-05T01:15:06.326Z,33.63
2019-05-05T01:17:36.952Z,38.93
2019-05-05T01:20:07.695Z,35.63
2019-05-05T01:22:38.333Z,35.97
2019-05-05T01:25:09.043Z,38.07
2019-05-05T01:27:39.625Z,41.23
2019-05-05T01:30:16.345Z,36.60
2019-05-05T01:32:57.847Z,39.03
2019-05-05T01:35:29.561Z,41.30
2019-05-05T01:38:01.719Z,43.60
2019-05-05T01:40:35.356Z,42.70
2019-05-05T01:43:06.231Z,48.63
2019-05-05T01:45:37.166Z,48.13
2019-05-05T01:48:08.445Z,52.87
2019-05-05T01:50:40.669Z,47.77
2019-05-05T01:53:11.295Z,52.47
2019-05-05T01:55:45.173Z,51.93
2019-05-05T01:58:16.370Z,51.03
2019-05-05T02:00:46.989Z,54.10
2019-05-05T02:03:17.610Z,51.07
2019-05-05T02:05:48.938Z,59.70
2019-05-05T02:08:20.831Z,53.97
2019-05-05T02:10:51.417Z,65.43
2019-05-05T02:13:22.443Z,70.57
2019-05-05T02:15:55.419Z,59.97
2019-05-05T02:18:29.179Z,57.63
2019-05-05T02:21:05.124Z,54.87
2019-05-05T02:23:37.585Z,63.77
2019-05-05T02:26:08.912Z,53.77
2019-05-05T02:28:47.399Z,54.80
2019-05-05T02:31:25.298Z,50.60
2019-05-05T02:33:56.845Z,54.57
2019-05-05T02:36:28.615Z,47.57
2019-05-05T02:38:59.322Z,44.07
2019-05-05T02:41:30.370Z,46.60
2019-05-05T02:44:01.541Z,47.47
2019-05-05T02:46:41.175Z,41.80
2019-05-05T02:49:14.903Z,36.23
2019-05-05T02:51:47.190Z,34.60
2019-05-05T02:54:19.880Z,31.43
2019-05-05T02:56:54.200Z,38.53
2019-05-05T02:59:29.512Z,32.60
2019-05-05T03:02:04.333Z,26.70
2019-05-05T03:04:35.139Z,32.67
2019-05-05T03:07:09.100Z,28.17
2019-05-05T03:09:41.064Z,30.53
2019-05-05T03:12:14.764Z,31.63
2019-05-05T03:14:47.106Z,32.77
2019-05-05T03:17:19.874Z,27.93
2019-05-05T03:19:53.393Z,27.37
2019-05-05T03:22:25.136Z,30.13
2019-05-05T03:24:57.351Z,26.87
2019-05-05T03:27:30.763Z,22.07
2019-05-05T03:30:04.676Z,22.03
2019-05-05T03:32:35.957Z,26.90
2019-05-05T03:35:06.664Z,24.80
2019-05-05T03:37:37.658Z,27.53
2019-05-05T03:40:10.794Z,24.47
2019-05-05T03:42:44.297Z,21.20
2019-05-05T03:45:19.727Z,17.83
2019-05-05T03:47:51.030Z,18.40
2019-05-05T03:50:23.292Z,19.37
2019-05-05T03:52:55.944Z,17.63
2019-05-05T03:55:26.558Z,19.33
2019-05-05T03:57:57.303Z,22.07
2019-05-05T04:00:40.306Z,18.93
2019-05-05T04:03:11.057Z,20.23
2019-05-05T04:05:46.992Z,23.60
2019-05-05T04:08:17.737Z,25.13
2019-05-05T04:10:50.934Z,27.47
2019-05-05T04:13:24.155Z,25.20
2019-05-05T04:16:06.675Z,26.60
2019-05-05T04:18:54.213Z,26.83
2019-05-05T04:21:33.605Z,23.67
2019-05-05T04:23:58.282Z,25.93
2019-05-05T04:26:29.121Z,25.27
2019-05-05T04:29:02.267Z,30.07
2019-05-05T04:31:34.546Z,25.43
2019-05-05T04:34:05.311Z,26.63
2019-05-05T04:36:35.916Z,27.97
2019-05-05T04:39:07.874Z,23.67
2019-05-05T04:41:38.683Z,23.30
2019-05-05T04:44:12.014Z,24.47
2019-05-05T04:46:46.365Z,31.10
2019-05-05T04:49:23.388Z,32.20
2019-05-05T04:51:58.540Z,35.53
2019-05-05T04:54:30.795Z,33.40
2019-05-05T04:57:01.487Z,28.47
2019-05-05T04:59:34.048Z,26.10
2019-05-05T05:02:06.436Z,30.33
2019-05-05T05:04:44.944Z,36.37
2019-05-05T05:07:16.697Z,29.47
2019-05-05T05:09:47.373Z,29.97
2019-05-05T05:12:19.120Z,24.63
2019-05-05T05:14:51.297Z,25.30
2019-05-05T05:17:24.931Z,25.50
2019-05-05T05:19:55.836Z,27.00
2019-05-05T05:22:26.472Z,25.70
2019-05-05T05:24:57.062Z,26.93
2019-05-05T05:27:27.838Z,24.30
2019-05-05T05:30:04.528Z,20.50
2019-05-05T05:32:36.353Z,22.23
2019-05-05T05:35:09.222Z,20.70
2019-05-05T05:37:44.580Z,19.87
2019-05-05T05:40:18.382Z,24.30
2019-05-05T05:42:50.075Z,18.43
2019-05-05T05:45:36.055Z,25.20
2019-05-05T05:48:23.691Z,21.60
2019-05-05T05:50:56.092Z,18.73
2019-05-05T05:53:26.692Z,21.63
2019-05-05T05:55:59.112Z,19.03
2019-05-05T05:58:29.926Z,16.77
2019-05-05T06:01:04.989Z,24.83
2019-05-05T06:03:36.307Z,20.57
2019-05-05T06:06:06.952Z,23.47
2019-05-05T06:08:37.694Z,20.93
2019-05-05T06:11:08.339Z,26.53
2019-05-05T06:13:40.259Z,24.10
2019-05-05T06:16:11.521Z,20.47
2019-05-05T06:18:43.839Z,24.37
2019-05-05T06:21:14.448Z,23.60
2019-05-05T06:23:45.075Z,21.73
2019-05-05T06:26:15.672Z,29.30
2019-05-05T06:28:46.644Z,17.00
2019-05-05T06:31:17.376Z,22.50
2019-05-05T06:33:48.925Z,20.33
2019-05-05T06:36:20.020Z,11.83
2019-05-05T06:38:53.789Z,11.63
2019-05-05T06:41:30.209Z,15.67
2019-05-05T06:44:05.228Z,12.63
2019-05-05T06:46:44.984Z,12.03
2019-05-05T06:49:15.635Z,11.97
2019-05-05T06:51:46.265Z,8.37
2019-05-05T06:54:16.845Z,8.43
2019-05-05T06:56:48.495Z,9.33
2019-05-05T06:59:19.198Z,5.37
2019-05-05T07:01:49.932Z,7.30
2019-05-05T07:04:24.389Z,8.93
2019-05-05T07:06:57.333Z,11.20
2019-05-05T07:09:29.650Z,8.67
2019-05-05T07:12:00.257Z,7.70
2019-05-05T07:14:31.052Z,8.13
2019-05-05T07:17:04.897Z,7.60
2019-05-05T07:19:35.299Z,8.53
2019-05-05T07:22:06.037Z,10.23
2019-05-05T07:24:37.022Z,8.17
2019-05-05T07:27:07.936Z,11.43
2019-05-05T07:29:38.541Z,10.27
2019-05-05T07:32:10.466Z,7.90
2019-05-05T07:34:45.744Z,7.80
2019-05-05T07:37:17.663Z,12.33
2019-05-05T07:39:50.002Z,6.73
2019-05-05T07:42:20.712Z,5.90
2019-05-05T07:44:52.141Z,8.03
2019-05-05T07:47:23.825Z,6.27
2019-05-05T07:49:54.700Z,5.27
2019-05-05T07:52:25.324Z,6.87
2019-05-05T07:54:59.042Z,7.90
2019-05-05T07:57:31.002Z,8.27
2019-05-05T08:00:02.736Z,7.30
2019-05-05T08:02:36.072Z,7.33
2019-05-05T08:05:08.477Z,12.90
2019-05-05T08:07:44.688Z,12.80
2019-05-05T08:10:16.551Z,11.67
2019-05-05T08:12:48.699Z,9.63
2019-05-05T08:15:21.369Z,7.53
2019-05-05T08:18:09.017Z,10.40
2019-05-05T08:20:44.334Z,8.60
2019-05-05T08:23:30.310Z,7.40
2019-05-05T08:25:58.415Z,8.63
2019-05-05T08:28:35.119Z,6.30
2019-05-05T08:31:11.811Z,6.10
2019-05-05T08:33:44.201Z,5.63
2019-05-05T08:36:14.841Z,4.57
2019-05-05T08:38:45.677Z,6.07
2019-05-05T08:41:17.326Z,7.60
2019-05-05T08:43:47.966Z,4.93
2019-05-05T08:46:18.488Z,8.53
2019-05-05T08:48:49.136Z,17.00
2019-05-05T08:51:19.757Z,4.27
2019-05-05T08:53:50.483Z,3.20
2019-05-05T08:56:21.336Z,18.70
2019-05-05T08:58:54.353Z,11.60
2019-05-05T09:01:24.440Z,6.17
2019-05-05T09:03:55.058Z,10.73
2019-05-05T09:06:25.787Z,7.40
2019-05-05T09:08:56.327Z,10.43
2019-05-05T09:11:26.956Z,3.97
2019-05-05T09:13:57.604Z,5.77
2019-05-05T09:16:28.388Z,2.50
2019-05-05T09:19:06.643Z,5.30
2019-05-05T09:21:37.359Z,10.77
2019-05-05T09:24:28.174Z,4.43
2019-05-05T09:27:00.486Z,6.03
2019-05-05T09:29:43.770Z,5.73
2019-05-05T09:32:14.276Z,7.40
2019-05-05T09:34:44.896Z,7.17
2019-05-05T09:37:15.587Z,4.03
2019-05-05T09:39:46.232Z,7.13
2019-05-05T09:42:16.902Z,5.37
2019-05-05T09:44:47.649Z,9.27
2019-05-05T09:47:24.008Z,7.27
2019-05-05T09:49:55.024Z,4.63
2019-05-05T09:52:25.671Z,10.43
2019-05-05T09:54:57.239Z,4.53
2019-05-05T09:57:28.257Z,6.60
2019-05-05T10:00:00.496Z,9.17
2019-05-05T10:02:31.497Z,6.77
2019-05-05T10:05:03.990Z,7.80
2019-05-05T10:07:34.675Z,4.17
2019-05-05T10:10:06.419Z,4.50
2019-05-05T10:12:37.137Z,8.33
2019-05-05T10:15:08.780Z,10.87
2019-05-05T10:17:39.431Z,5.63
2019-05-05T10:20:10.111Z,7.00
2019-05-05T10:22:40.693Z,8.03
2019-05-05T10:25:29.536Z,6.57
2019-05-05T10:28:00.357Z,5.10
2019-05-05T10:30:31.358Z,3.60
2019-05-05T10:33:03.787Z,7.50
2019-05-05T10:35:36.189Z,9.07
2019-05-05T10:38:06.859Z,9.60
2019-05-05T10:40:38.369Z,4.83
2019-05-05T10:43:09.096Z,9.00
2019-05-05T10:45:39.931Z,7.43
2019-05-05T10:48:10.668Z,7.07
2019-05-05T10:50:41.574Z,6.83
2019-05-05T10:53:13.652Z,11.33
2019-05-05T10:55:45.223Z,4.80
2019-05-05T10:58:15.802Z,6.47
2019-05-05T11:00:51.088Z,5.80
2019-05-05T11:03:23.744Z,8.23
2019-05-05T11:05:54.954Z,5.57
2019-05-05T11:08:25.695Z,9.07
2019-05-05T11:10:57.872Z,9.87
2019-05-05T11:13:28.759Z,4.40
2019-05-05T11:15:59.375Z,3.73
2019-05-05T11:18:29.970Z,6.07
2019-05-05T11:21:00.861Z,8.13
2019-05-05T11:23:31.530Z,9.20
2019-05-05T11:26:03.906Z,7.60
2019-05-05T11:28:34.638Z,6.97
2019-05-05T11:31:05.467Z,5.53
2019-05-05T11:33:43.834Z,4.30
2019-05-05T11:36:19.037Z,5.97
2019-05-05T11:38:53.531Z,6.57
2019-05-05T11:41:24.253Z,9.07
2019-05-05T11:43:54.981Z,8.33
2019-05-05T11:46:25.636Z,7.73
2019-05-05T11:48:56.380Z,9.10
2019-05-05T11:51:27.005Z,4.27
2019-05-05T11:53:57.624Z,5.27
2019-05-05T11:56:28.302Z,7.33
2019-05-05T11:58:59.050Z,6.30
2019-05-05T12:01:30.901Z,5.73
2019-05-05T12:04:04.914Z,5.90
2019-05-05T12:06:38.170Z,8.27
2019-05-05T12:09:13.871Z,5.83
2019-05-05T12:11:44.468Z,10.13
2019-05-05T12:14:16.658Z,7.63
2019-05-05T12:16:47.351Z,9.03
2019-05-05T12:19:18.171Z,11.77
2019-05-05T12:21:48.823Z,7.97
2019-05-05T12:24:24.654Z,7.97
2019-05-05T12:26:56.478Z,7.17
2019-05-05T12:29:27.094Z,7.17
2019-05-05T12:31:58.506Z,8.50
2019-05-05T12:34:30.671Z,9.87
2019-05-05T12:37:05.933Z,5.50
2019-05-05T12:39:37.788Z,11.43
2019-05-05T12:42:09.602Z,5.40
2019-05-05T12:44:42.665Z,6.17
2019-05-05T12:47:14.885Z,8.03
2019-05-05T12:49:48.732Z,9.93
2019-05-05T12:52:19.926Z,9.53
2019-05-05T12:54:54.498Z,6.87
2019-05-05T12:57:26.041Z,4.70
2019-05-05T12:59:58.204Z,4.00
2019-05-05T13:02:35.591Z,3.93
2019-05-05T13:05:08.135Z,7.83
2019-05-05T13:07:39.142Z,5.30
2019-05-05T13:10:13.824Z,5.37
2019-05-05T13:12:44.875Z,7.27
2019-05-05T13:15:18.657Z,11.50
2019-05-05T13:17:51.297Z,6.00
2019-05-05T13:20:30.793Z,4.87
2019-05-05T13:23:19.472Z,6.37
2019-05-05T13:26:09.683Z,10.07
2019-05-05T13:28:40.424Z,5.73
2019-05-05T13:31:11.101Z,9.87
2019-05-05T13:33:44.063Z,14.93
2019-05-05T13:36:15.407Z,7.23
2019-05-05T13:38:47.633Z,21.97
2019-05-05T13:41:18.649Z,10.43
2019-05-05T13:43:51.560Z,11.00
2019-05-05T13:46:25.395Z,12.20
2019-05-05T13:48:58.069Z,5.13
2019-05-05T13:51:29.346Z,10.20
2019-05-05T13:54:01.380Z,8.10
2019-05-05T13:56:33.624Z,11.43
2019-05-05T13:59:05.843Z,11.93
2019-05-05T14:01:38.980Z,13.10
2019-05-05T14:04:11.172Z,6.57
2019-05-05T14:06:44.483Z,6.60
2019-05-05T14:09:16.678Z,4.90
2019-05-05T14:11:47.532Z,3.60
2019-05-05T14:14:20.309Z,3.43
2019-05-05T14:16:53.921Z,9.77
2019-05-05T14:19:26.738Z,5.33
2019-05-05T14:21:58.295Z,3.80
2019-05-05T14:24:39.777Z,6.50
2019-05-05T14:27:10.714Z,3.13
2019-05-05T14:29:45.673Z,6.63
2019-05-05T14:32:21.261Z,8.33
2019-05-05T14:34:59.466Z,5.40
2019-05-05T14:37:34.062Z,6.50
2019-05-05T14:40:08.568Z,4.97
2019-05-05T14:42:39.442Z,9.67
2019-05-05T14:45:12.139Z,6.27
2019-05-05T14:47:44.167Z,7.43
2019-05-05T14:50:15.100Z,5.77
2019-05-05T14:52:45.894Z,4.87
2019-05-05T14:55:16.664Z,6.10
2019-05-05T14:57:50.427Z,6.43
2019-05-05T15:00:24.205Z,8.57
2019-05-05T15:02:55.065Z,5.30
2019-05-05T15:05:44.462Z,11.57
2019-05-05T15:08:16.609Z,3.53
2019-05-05T15:10:54.841Z,8.53
2019-05-05T15:13:25.439Z,6.33
2019-05-05T15:15:56.051Z,2.60
2019-05-05T15:18:26.726Z,7.23
2019-05-05T15:20:59.170Z,11.73
2019-05-05T15:23:29.884Z,25.83
2019-05-05T15:26:00.632Z,4.47
2019-05-05T15:28:33.501Z,6.83
2019-05-05T15:31:07.933Z,6.50
2019-05-05T15:33:41.123Z,3.30
2019-05-05T15:36:13.813Z,8.83
2019-05-05T15:38:44.931Z,7.40
2019-05-05T15:41:15.556Z,3.60
2019-05-05T15:43:46.186Z,5.70
2019-05-05T15:46:16.774Z,3.93
2019-05-05T15:48:47.487Z,4.17
2019-05-05T15:51:18.200Z,3.23
2019-05-05T15:53:50.492Z,4.90
2019-05-05T15:56:21.643Z,7.53
2019-05-05T15:58:53.129Z,6.37
2019-05-05T16:01:25.851Z,7.70
2019-05-05T16:03:56.598Z,8.20
2019-05-05T16:06:30.277Z,9.17
2019-05-05T16:09:01.471Z,3.90
2019-05-05T16:11:34.488Z,5.67
2019-05-05T16:14:05.218Z,10.37
2019-05-05T16:16:55.632Z,4.40
2019-05-05T16:19:46.368Z,4.27
2019-05-05T16:22:25.497Z,5.33
2019-05-05T16:25:09.498Z,3.10
2019-05-05T16:27:45.091Z,6.37
2019-05-05T16:30:18.182Z,12.50
2019-05-05T16:32:49.034Z,2.73
2019-05-05T16:35:20.968Z,3.97
2019-05-05T16:37:51.581Z,4.00
2019-05-05T16:40:26.252Z,6.03
2019-05-05T16:42:58.429Z,8.00
2019-05-05T16:45:29.726Z,4.27
2019-05-05T16:48:03.931Z,5.37
2019-05-05T16:50:36.859Z,6.43
2019-05-05T16:53:07.794Z,7.33
2019-05-05T16:56:00.487Z,5.73
2019-05-05T16:58:31.145Z,10.10
2019-05-05T17:01:17.173Z,7.83
2019-05-05T17:03:49.411Z,6.13
2019-05-05T17:06:20.230Z,6.07
2019-05-05T17:08:50.963Z,9.27
2019-05-05T17:11:21.670Z,6.10
2019-05-05T17:14:09.546Z,7.67
2019-05-05T17:16:44.216Z,5.27
2019-05-05T17:19:33.759Z,6.77
2019-05-05T17:22:08.666Z,6.60
2019-05-05T17:24:39.378Z,12.87
2019-05-05T17:27:09.997Z,7.47
2019-05-05T17:29:40.749Z,4.03
2019-05-05T17:32:11.356Z,6.83
2019-05-05T17:34:48.010Z,10.50
2019-05-05T17:37:20.178Z,9.53
2019-05-05T17:39:54.569Z,5.40
2019-05-05T17:42:45.872Z,6.00
2019-05-05T17:45:20.772Z,6.03
2019-05-05T17:48:05.162Z,6.27
2019-05-05T17:50:53.983Z,10.13
2019-05-05T17:53:38.624Z,5.13
2019-05-05T17:56:13.599Z,7.37
2019-05-05T17:58:44.530Z,6.10
2019-05-05T18:01:17.362Z,5.00
2019-05-05T18:03:54.886Z,3.43
2019-05-05T18:06:39.521Z,7.17
2019-05-05T18:09:29.865Z,6.13
2019-05-05T18:12:18.483Z,4.47
2019-05-05T18:14:50.698Z,5.70
2019-05-05T18:17:21.318Z,5.40
2019-05-05T18:19:53.673Z,5.03
2019-05-05T18:22:24.821Z,15.27
2019-05-05T18:24:56.514Z,10.97
2019-05-05T18:27:32.049Z,14.70
2019-05-05T18:30:03.995Z,6.87
2019-05-05T18:32:36.229Z,5.03
2019-05-05T18:35:07.117Z,12.47
2019-05-05T18:37:39.485Z,9.43
2019-05-05T18:40:10.262Z,13.63
2019-05-05T18:42:41.957Z,6.43
2019-05-05T18:45:14.477Z,5.43
2019-05-05T18:47:45.296Z,4.93
2019-05-05T18:50:16.680Z,9.10
2019-05-05T18:52:50.675Z,5.10
2019-05-05T18:55:21.853Z,5.90
2019-05-05T18:57:54.139Z,9.50
2019-05-05T19:00:30.458Z,5.40
2019-05-05T19:03:17.719Z,5.77
2019-05-05T19:05:46.806Z,8.43
2019-05-05T19:08:27.879Z,4.47
2019-05-05T19:11:03.711Z,5.63
2019-05-05T19:13:35.096Z,8.37
2019-05-05T19:16:05.693Z,4.53
2019-05-05T19:18:36.344Z,8.80
2019-05-05T19:21:14.605Z,7.07
2019-05-05T19:23:45.234Z,53.30
2019-05-05T19:26:15.827Z,8.47
2019-05-05T19:28:50.028Z,6.30
2019-05-05T19:31:19.272Z,6.93
2019-05-05T19:33:50.708Z,8.80
2019-05-05T19:36:22.607Z,4.40
2019-05-05T19:38:54.920Z,5.70
2019-05-05T19:41:29.424Z,5.37
2019-05-05T19:44:01.867Z,4.93
2019-05-05T19:46:34.646Z,5.70
2019-05-05T19:49:16.476Z,7.23
2019-05-05T19:51:47.797Z,8.43
2019-05-05T19:54:18.377Z,5.37
2019-05-05T19:56:49.778Z,6.87
2019-05-05T19:59:20.617Z,7.07
2019-05-05T20:01:51.396Z,12.83
2019-05-05T20:04:24.117Z,12.13
2019-05-05T20:06:55.019Z,10.80
2019-05-05T20:09:28.327Z,11.80
2019-05-05T20:12:00.024Z,11.90
2019-05-05T20:14:30.808Z,5.87
2019-05-05T20:17:10.269Z,14.50
2019-05-05T20:19:43.961Z,7.43
2019-05-05T20:22:15.463Z,7.83
2019-05-05T20:24:47.673Z,5.53
2019-05-05T20:27:18.226Z,10.47
2019-05-05T20:29:49.177Z,6.23
2019-05-05T20:32:26.193Z,25.43
2019-05-05T20:35:10.509Z,9.47
2019-05-05T20:37:47.411Z,7.87
2019-05-05T20:40:21.038Z,11.17
2019-05-05T20:42:54.257Z,8.50
2019-05-05T20:45:29.159Z,5.03
2019-05-05T20:47:59.996Z,8.67
2019-05-05T20:50:34.313Z,13.37
2019-05-05T20:53:06.639Z,10.20
2019-05-05T20:55:37.837Z,10.70
2019-05-05T20:58:08.633Z,9.97
2019-05-05T21:00:39.309Z,10.63
2019-05-05T21:03:10.622Z,8.30
2019-05-05T21:05:41.277Z,8.80
2019-05-05T21:08:14.116Z,11.23
2019-05-05T21:10:47.910Z,9.97
2019-05-05T21:13:18.477Z,9.57
2019-05-05T21:15:51.106Z,16.47
2019-05-05T21:18:25.340Z,11.70
2019-05-05T21:20:57.921Z,14.43
2019-05-05T21:23:30.467Z,10.23
2019-05-05T21:26:06.405Z,14.10
2019-05-05T21:28:37.115Z,11.50
2019-05-05T21:31:07.734Z,11.43
2019-05-05T21:33:38.853Z,13.80
2019-05-05T21:36:09.543Z,12.27
2019-05-05T21:38:40.142Z,10.67
2019-05-05T21:41:13.652Z,14.17
2019-05-05T21:43:44.823Z,9.40
2019-05-05T21:46:17.877Z,15.13
2019-05-05T21:48:48.188Z,11.97
2019-05-05T21:51:27.917Z,11.37
2019-05-05T21:54:04.435Z,16.10
2019-05-05T21:56:38.298Z,13.70
2019-05-05T21:59:08.944Z,11.80
2019-05-05T22:01:48.999Z,14.87
2019-05-05T22:04:16.368Z,10.20
2019-05-05T22:06:46.948Z,8.97
2019-05-05T22:09:19.212Z,8.30
2019-05-05T22:11:49.899Z,11.77
2019-05-05T22:14:25.856Z,10.77
2019-05-05T22:16:57.074Z,10.70
2019-05-05T22:19:31.494Z,10.53
2019-05-05T22:22:10.424Z,8.83
2019-05-05T22:24:44.410Z,5.47
2019-05-05T22:27:16.129Z,5.57
2019-05-05T22:29:46.752Z,4.57
2019-05-05T22:32:19.293Z,7.63
2019-05-05T22:34:50.229Z,4.57
2019-05-05T22:37:23.643Z,3.83
2019-05-05T22:39:56.618Z,9.57
2019-05-05T22:42:27.462Z,5.53
2019-05-05T22:44:58.194Z,4.33
2019-05-05T22:47:30.025Z,5.70
2019-05-05T22:50:00.716Z,6.83
2019-05-05T22:52:34.411Z,4.73
2019-05-05T22:55:07.467Z,9.23
2019-05-05T22:57:39.019Z,5.33
2019-05-05T23:00:25.296Z,3.80
2019-05-05T23:03:04.452Z,5.97
2019-05-05T23:05:43.988Z,7.80
2019-05-05T23:08:18.407Z,8.80
2019-05-05T23:10:49.204Z,5.97
2019-05-05T23:13:19.867Z,9.97
2019-05-05T23:15:55.057Z,7.27
2019-05-05T23:18:28.650Z,5.53
2019-05-05T23:21:04.281Z,8.70
2019-05-05T23:23:36.700Z,5.93
2019-05-05T23:26:09.029Z,5.80
2019-05-05T23:28:39.784Z,6.10
2019-05-05T23:31:16.176Z,9.77
2019-05-05T23:33:47.240Z,15.13
2019-05-05T23:36:17.937Z,6.30
2019-05-05T23:38:48.548Z,8.07
2019-05-05T23:41:19.180Z,7.07
2019-05-05T23:43:50.879Z,9.03
2019-05-05T23:46:24.152Z,9.10
2019-05-05T23:48:57.764Z,8.97
2019-05-05T23:51:34.870Z,9.00
2019-05-05T23:54:07.283Z,11.03
2019-05-05T23:56:44.162Z,9.10
2019-05-05T23:59:15.550Z,7.80
